createdAt,value
2023-04-17T00:00:52.302Z,29.30
2023-04-17T00:03:21.342Z,28.02
2023-04-17T00:05:54.091Z,29.55
2023-04-17T00:08:22.689Z,28.33
2023-04-17T00:11:00.647Z,27.80
2023-04-17T00:13:36.018Z,28.48
2023-04-17T00:16:04.728Z,29.45
2023-04-17T00:18:33.241Z,28.83
2023-04-17T00:21:01.770Z,28.58
2023-04-17T00:23:30.345Z,29.02
2023-04-17T00:26:00.775Z,28.63
2023-04-17T00:28:29.925Z,28.08
2023-04-17T00:30:59.032Z,29.30
2023-04-17T00:33:27.936Z,27.77
2023-04-17T00:35:56.770Z,27.85
2023-04-17T00:38:25.848Z,27.83
2023-04-17T00:40:54.410Z,27.63
2023-04-17T00:43:24.613Z,28.17
2023-04-17T00:45:54.034Z,27.75
2023-04-17T00:48:24.375Z,28.58
2023-04-17T00:50:53.945Z,26.13
2023-04-17T00:53:22.682Z,24.75
2023-04-17T00:55:53.435Z,26.15
2023-04-17T00:58:24.136Z,25.30
2023-04-17T01:00:53.224Z,24.75
2023-04-17T01:03:23.188Z,23.38
2023-04-17T01:05:54.597Z,22.80
2023-04-17T01:08:26.342Z,23.80
2023-04-17T01:10:54.671Z,24.13
2023-04-17T01:13:24.463Z,23.80
2023-04-17T01:15:52.951Z,22.63
2023-04-17T01:18:23.133Z,23.58
2023-04-17T01:20:51.599Z,23.20
2023-04-17T01:23:20.086Z,24.42
2023-04-17T01:25:51.236Z,24.65
2023-04-17T01:28:20.120Z,24.38
2023-04-17T01:30:48.660Z,25.30
2023-04-17T01:33:17.042Z,24.50
2023-04-17T01:35:45.495Z,25.10
2023-04-17T01:38:14.191Z,23.38
2023-04-17T01:40:42.637Z,22.77
2023-04-17T01:43:12.494Z,22.25
2023-04-17T01:45:40.752Z,21.02
2023-04-17T01:48:09.206Z,21.23
2023-04-17T01:50:37.689Z,22.80
2023-04-17T01:53:06.093Z,21.40
2023-04-17T01:55:34.679Z,23.40
2023-04-17T01:58:03.200Z,23.23
2023-04-17T02:00:34.538Z,24.80
2023-04-17T02:03:03.063Z,23.45
2023-04-17T02:05:31.491Z,23.40
2023-04-17T02:07:59.840Z,24.58
2023-04-17T02:10:28.106Z,25.42
2023-04-17T02:12:56.387Z,25.95
2023-04-17T02:15:24.912Z,25.90
2023-04-17T02:17:54.801Z,24.30
2023-04-17T02:20:23.590Z,23.67
2023-04-17T02:22:51.854Z,24.33
2023-04-17T02:25:20.751Z,23.65
2023-04-17T02:27:49.061Z,25.50
2023-04-17T02:30:17.425Z,24.85
2023-04-17T02:32:46.109Z,23.90
2023-04-17T02:35:16.123Z,23.58
2023-04-17T02:37:44.502Z,23.40
2023-04-17T02:40:13.510Z,23.13
2023-04-17T02:42:41.972Z,22.42
2023-04-17T02:45:11.686Z,22.15
2023-04-17T02:47:40.868Z,20.90
2023-04-17T02:50:10.613Z,22.27
2023-04-17T02:52:41.046Z,21.77
2023-04-17T02:55:10.876Z,21.00
2023-04-17T02:57:39.405Z,21.48
2023-04-17T03:00:13.617Z,21.08
2023-04-17T03:02:42.349Z,20.20
2023-04-17T03:05:15.000Z,21.48
2023-04-17T03:07:44.927Z,20.60
2023-04-17T03:10:13.527Z,22.88
2023-04-17T03:12:42.118Z,22.80
2023-04-17T03:15:11.833Z,22.58
2023-04-17T03:17:40.541Z,23.25
2023-04-17T03:20:10.431Z,23.42
2023-04-17T03:22:38.867Z,24.17
2023-04-17T03:25:12.769Z,23.02
2023-04-17T03:27:41.059Z,22.45
2023-04-17T03:30:11.012Z,22.02
2023-04-17T03:32:39.576Z,23.40
2023-04-17T03:35:08.561Z,23.08
2023-04-17T03:37:37.068Z,23.02
2023-04-17T03:40:07.458Z,23.98
2023-04-17T03:42:37.665Z,23.27
2023-04-17T03:45:07.489Z,23.30
2023-04-17T03:47:35.972Z,23.95
2023-04-17T03:50:04.916Z,24.17
2023-04-17T03:52:33.537Z,24.33
2023-04-17T03:55:02.260Z,23.30
2023-04-17T03:57:30.669Z,22.33
2023-04-17T04:00:00.620Z,24.38
2023-04-17T04:02:29.082Z,25.13
2023-04-17T04:04:57.690Z,23.70
2023-04-17T04:07:26.348Z,25.20
2023-04-17T04:09:55.872Z,24.30
2023-04-17T04:12:27.667Z,25.05
2023-04-17T04:14:55.904Z,25.88
2023-04-17T04:17:25.693Z,23.98
2023-04-17T04:19:54.158Z,24.77
2023-04-17T04:22:22.595Z,25.33
2023-04-17T04:24:53.669Z,25.35
2023-04-17T04:27:22.834Z,25.38
2023-04-17T04:29:51.390Z,27.70
2023-04-17T04:32:20.092Z,26.40
2023-04-17T04:34:49.829Z,25.88
2023-04-17T04:37:22.183Z,24.98
2023-04-17T04:39:54.104Z,26.00
2023-04-17T04:42:22.748Z,27.35
2023-04-17T04:44:51.097Z,26.98
2023-04-17T04:47:20.194Z,27.92
2023-04-17T04:49:53.065Z,27.08
2023-04-17T04:52:24.897Z,26.77
2023-04-17T04:54:54.484Z,28.17
2023-04-17T04:57:23.036Z,27.90
2023-04-17T04:59:52.309Z,28.45
2023-04-17T05:02:21.292Z,27.98
2023-04-17T05:04:50.208Z,27.05
2023-04-17T05:07:20.468Z,28.60
2023-04-17T05:09:50.183Z,29.58
2023-04-17T05:12:19.536Z,28.42
2023-04-17T05:14:48.196Z,30.63
2023-04-17T05:17:16.622Z,28.90
2023-04-17T05:19:45.116Z,29.50
2023-04-17T05:22:13.483Z,28.50
2023-04-17T05:24:45.097Z,29.73
2023-04-17T05:27:27.909Z,28.00
2023-04-17T05:29:56.428Z,30.63
2023-04-17T05:32:24.816Z,30.13
2023-04-17T05:34:53.412Z,30.33
2023-04-17T05:37:22.111Z,30.08
2023-04-17T05:40:01.670Z,30.05
2023-04-17T05:42:30.345Z,30.20
2023-04-17T05:44:58.963Z,29.02
2023-04-17T05:47:27.488Z,29.52
2023-04-17T05:49:58.355Z,30.65
2023-04-17T05:52:27.136Z,30.58
2023-04-17T05:54:57.910Z,30.42
2023-04-17T05:57:26.572Z,30.92
2023-04-17T05:59:55.150Z,32.33
2023-04-17T06:02:27.108Z,31.73
2023-04-17T06:04:59.140Z,31.88
2023-04-17T06:07:28.258Z,32.60
2023-04-17T06:10:00.764Z,34.47
2023-04-17T06:12:29.931Z,33.65
2023-04-17T06:15:13.817Z,32.53
2023-04-17T06:17:42.964Z,33.05
2023-04-17T06:20:13.374Z,33.60
2023-04-17T06:22:47.246Z,36.33
2023-04-17T06:25:18.217Z,35.80
2023-04-17T06:27:46.859Z,34.05
2023-04-17T06:30:16.010Z,32.33
2023-04-17T06:32:52.665Z,33.08
2023-04-17T06:35:21.247Z,32.55
2023-04-17T06:37:49.772Z,32.92
2023-04-17T06:40:22.277Z,34.28
2023-04-17T06:42:50.948Z,33.25
2023-04-17T06:45:19.807Z,33.08
2023-04-17T06:47:50.519Z,33.92
2023-04-17T06:50:19.112Z,32.33
2023-04-17T06:52:47.752Z,32.17
2023-04-17T06:55:16.667Z,31.63
2023-04-17T06:57:47.356Z,31.17
2023-04-17T07:00:17.406Z,30.80
2023-04-17T07:02:46.154Z,31.10
2023-04-17T07:05:15.006Z,30.80
2023-04-17T07:07:46.216Z,29.27
2023-04-17T07:10:16.163Z,27.52
2023-04-17T07:12:46.438Z,27.17
2023-04-17T07:15:15.244Z,28.25
2023-04-17T07:17:43.800Z,27.65
2023-04-17T07:20:22.937Z,28.90
2023-04-17T07:22:54.338Z,27.65
2023-04-17T07:25:22.871Z,26.63
2023-04-17T07:27:52.707Z,26.05
2023-04-17T07:30:22.294Z,23.77
2023-04-17T07:32:53.966Z,23.13
2023-04-17T07:35:22.712Z,24.13
2023-04-17T07:37:51.918Z,24.10
2023-04-17T07:40:20.848Z,23.90
2023-04-17T07:42:49.988Z,24.70
2023-04-17T07:45:20.709Z,23.23
2023-04-17T07:47:49.298Z,22.08
2023-04-17T07:50:18.057Z,22.70
2023-04-17T07:52:50.007Z,22.13
2023-04-17T07:55:19.476Z,21.52
2023-04-17T07:57:50.196Z,20.98
2023-04-17T08:00:21.431Z,21.23
2023-04-17T08:02:50.154Z,20.88
2023-04-17T08:05:19.076Z,20.30
2023-04-17T08:07:47.451Z,20.38
2023-04-17T08:10:16.357Z,20.48
2023-04-17T08:12:44.870Z,20.02
2023-04-17T08:15:13.906Z,19.45
2023-04-17T08:17:46.533Z,19.02
2023-04-17T08:20:15.325Z,18.73
2023-04-17T08:22:46.382Z,19.65
2023-04-17T08:25:15.875Z,19.08
2023-04-17T08:27:45.806Z,19.55
2023-04-17T08:30:18.482Z,19.65
2023-04-17T08:32:52.429Z,19.40
2023-04-17T08:35:21.386Z,19.65
2023-04-17T08:37:55.589Z,18.98
2023-04-17T08:40:26.248Z,18.85
2023-04-17T08:42:56.796Z,18.60
2023-04-17T08:45:26.267Z,18.90
2023-04-17T08:47:56.914Z,18.55
2023-04-17T08:50:26.192Z,18.73
2023-04-17T08:52:54.772Z,19.25
2023-04-17T08:55:29.121Z,18.77
2023-04-17T08:58:04.295Z,19.00
2023-04-17T09:00:35.580Z,18.63
2023-04-17T09:03:09.052Z,19.92
2023-04-17T09:05:39.042Z,19.10
2023-04-17T09:08:11.775Z,19.38
2023-04-17T09:10:49.802Z,18.20
2023-04-17T09:13:20.881Z,18.42
2023-04-17T09:16:06.487Z,17.67
2023-04-17T09:18:43.014Z,17.38
2023-04-17T09:21:12.064Z,19.00
2023-04-17T09:23:53.259Z,17.52
2023-04-17T09:26:23.984Z,17.58
2023-04-17T09:29:09.085Z,17.48
2023-04-17T09:31:40.237Z,18.20
2023-04-17T09:34:16.487Z,18.30
2023-04-17T09:36:46.391Z,18.63
2023-04-17T09:39:20.948Z,19.15
2023-04-17T09:41:49.778Z,20.50
2023-04-17T09:44:28.392Z,19.08
2023-04-17T09:46:58.047Z,18.38
2023-04-17T09:49:35.023Z,18.83
2023-04-17T09:52:06.027Z,18.55
2023-04-17T09:54:40.873Z,20.02
2023-04-17T09:57:13.881Z,19.75
2023-04-17T09:59:45.918Z,19.23
2023-04-17T10:02:16.558Z,19.45
2023-04-17T10:04:48.920Z,19.88
2023-04-17T10:07:18.279Z,19.83
2023-04-17T10:09:48.048Z,18.63
2023-04-17T10:12:18.994Z,19.50
2023-04-17T10:14:57.576Z,19.27
2023-04-17T10:17:28.885Z,19.63
2023-04-17T10:20:22.502Z,20.38
2023-04-17T10:22:56.114Z,20.17
2023-04-17T10:25:26.724Z,20.25
2023-04-17T10:27:58.474Z,20.00
2023-04-17T10:30:52.129Z,20.20
2023-04-17T10:33:26.352Z,19.13
2023-04-17T10:35:56.900Z,18.35
2023-04-17T10:38:37.608Z,18.23
2023-04-17T10:41:11.406Z,18.52
2023-04-17T10:43:46.340Z,18.10
2023-04-17T10:46:16.425Z,17.85
2023-04-17T10:48:52.849Z,18.00
2023-04-17T10:51:44.083Z,18.33
2023-04-17T10:54:15.875Z,17.67
2023-04-17T10:56:48.464Z,17.63
2023-04-17T10:59:19.003Z,18.17
2023-04-17T11:02:04.606Z,17.88
2023-04-17T11:04:34.989Z,19.15
2023-04-17T11:07:04.740Z,17.08
2023-04-17T11:09:33.077Z,17.27
2023-04-17T11:12:02.997Z,18.02
2023-04-17T11:14:32.405Z,18.52
2023-04-17T11:17:02.395Z,18.10
2023-04-17T11:19:33.367Z,17.55
2023-04-17T11:22:04.914Z,18.33
2023-04-17T11:24:34.875Z,19.17
2023-04-17T11:27:04.748Z,18.65
2023-04-17T11:29:33.115Z,18.55
2023-04-17T11:32:02.065Z,17.45
2023-04-17T11:34:31.735Z,16.98
2023-04-17T11:37:02.488Z,17.40
2023-04-17T11:39:33.935Z,18.92
2023-04-17T11:42:04.035Z,18.52
2023-04-17T11:44:32.635Z,17.30
2023-04-17T11:47:00.995Z,16.25
2023-04-17T11:49:31.654Z,17.42
2023-04-17T11:52:03.316Z,18.13
2023-04-17T11:54:37.371Z,17.98
2023-04-17T11:57:07.867Z,17.27
2023-04-17T11:59:39.315Z,17.58
2023-04-17T12:02:09.582Z,17.88
2023-04-17T12:04:39.853Z,18.38
2023-04-17T12:07:09.434Z,17.75
2023-04-17T12:09:40.583Z,19.10
2023-04-17T12:12:10.005Z,17.45
2023-04-17T12:14:38.739Z,18.50
2023-04-17T12:17:07.343Z,17.30
2023-04-17T12:19:35.826Z,17.58
2023-04-17T12:22:04.451Z,18.23
2023-04-17T12:24:33.625Z,17.83
2023-04-17T12:27:04.038Z,18.13
2023-04-17T12:29:44.029Z,17.83
2023-04-17T12:32:13.431Z,18.05
2023-04-17T12:34:42.292Z,17.95
2023-04-17T12:37:10.902Z,16.85
2023-04-17T12:39:39.323Z,16.92
2023-04-17T12:42:09.464Z,17.77
2023-04-17T12:44:39.751Z,17.90
2023-04-17T12:47:08.600Z,17.08
2023-04-17T12:49:36.916Z,16.77
2023-04-17T12:52:05.445Z,17.05
2023-04-17T12:54:33.931Z,17.00
2023-04-17T12:57:03.036Z,18.90
2023-04-17T12:59:32.916Z,17.55
2023-04-17T13:02:02.047Z,17.35
2023-04-17T13:04:30.617Z,17.38
2023-04-17T13:06:59.607Z,17.17
2023-04-17T13:09:28.428Z,17.10
2023-04-17T13:11:59.956Z,17.15
2023-04-17T13:14:28.383Z,17.38
2023-04-17T13:16:58.615Z,18.05
2023-04-17T13:19:27.486Z,17.42
2023-04-17T13:21:57.352Z,18.08
2023-04-17T13:24:26.125Z,16.48
2023-04-17T13:26:54.697Z,16.90
2023-04-17T13:29:23.097Z,17.60
2023-04-17T13:31:52.323Z,16.65
2023-04-17T13:34:22.770Z,16.38
2023-04-17T13:36:51.326Z,16.55
2023-04-17T13:39:20.319Z,16.02
2023-04-17T13:41:49.352Z,17.25
2023-04-17T13:44:18.828Z,16.42
2023-04-17T13:46:47.427Z,17.10
2023-04-17T13:49:15.923Z,16.77
2023-04-17T13:51:46.441Z,15.93
2023-04-17T13:54:18.945Z,15.27
2023-04-17T13:56:54.639Z,16.20
2023-04-17T13:59:24.590Z,15.93
2023-04-17T14:01:53.326Z,16.33
2023-04-17T14:04:22.250Z,15.80
2023-04-17T14:06:52.651Z,16.52
2023-04-17T14:09:24.068Z,16.23
2023-04-17T14:12:00.522Z,15.45
2023-04-17T14:14:29.100Z,16.77
2023-04-17T14:16:58.095Z,17.23
2023-04-17T14:19:26.968Z,17.35
2023-04-17T14:21:56.860Z,17.13
2023-04-17T14:24:25.131Z,16.13
2023-04-17T14:26:53.598Z,16.20
2023-04-17T14:29:22.667Z,17.13
2023-04-17T14:31:51.544Z,17.13
2023-04-17T14:34:20.040Z,15.50
2023-04-17T14:36:48.825Z,15.77
2023-04-17T14:39:19.843Z,14.70
2023-04-17T14:41:55.817Z,14.35
2023-04-17T14:44:24.369Z,15.38
2023-04-17T14:47:05.310Z,14.95
2023-04-17T14:49:34.520Z,15.30
2023-04-17T14:54:50.802Z,13.18
2023-04-17T14:57:22.273Z,13.90
2023-04-17T14:59:51.768Z,13.80
2023-04-17T15:02:20.724Z,13.95
2023-04-17T15:04:50.436Z,14.52
2023-04-17T15:07:18.975Z,13.18
2023-04-17T15:09:48.175Z,13.75
2023-04-17T15:12:21.354Z,13.55
2023-04-17T15:14:49.871Z,12.57
2023-04-17T15:17:18.584Z,12.77
2023-04-17T15:19:47.265Z,12.20
2023-04-17T15:22:17.991Z,12.68
2023-04-17T15:24:46.829Z,12.25
2023-04-17T15:27:15.833Z,12.48
2023-04-17T15:29:46.748Z,11.80
2023-04-17T15:32:15.379Z,12.25
2023-04-17T15:40:08.389Z,12.38
2023-04-17T15:42:38.747Z,12.63
2023-04-17T15:45:11.497Z,11.75
2023-04-17T15:47:40.155Z,12.27
2023-04-17T15:50:11.025Z,12.50
2023-04-17T15:52:43.234Z,12.63
2023-04-17T15:55:12.090Z,12.38
2023-04-17T15:57:43.127Z,12.18
2023-04-17T16:00:15.181Z,12.38
2023-04-17T16:02:47.895Z,12.57
2023-04-17T16:05:19.022Z,12.20
2023-04-17T16:07:48.210Z,12.35
2023-04-17T16:10:19.110Z,12.80
2023-04-17T16:12:48.696Z,13.05
2023-04-17T16:15:20.667Z,13.02
2023-04-17T16:17:54.585Z,13.18
2023-04-17T16:20:25.340Z,13.65
2023-04-17T16:22:55.084Z,13.32
2023-04-17T16:25:26.844Z,13.40
2023-04-17T16:27:56.855Z,13.38
2023-04-17T16:30:27.983Z,13.55
2023-04-17T16:32:56.818Z,13.30
2023-04-17T16:35:43.871Z,13.25
2023-04-17T16:38:16.868Z,12.85
2023-04-17T16:40:46.569Z,13.60
2023-04-17T16:43:15.845Z,13.77
2023-04-17T16:46:48.256Z,13.65
2023-04-17T16:49:32.906Z,14.68
2023-04-17T16:52:01.647Z,14.88
2023-04-17T16:54:35.074Z,16.13
2023-04-17T16:57:26.779Z,15.05
2023-04-17T16:59:58.721Z,15.77
2023-04-17T17:02:29.515Z,16.17
2023-04-17T17:05:01.861Z,16.33
2023-04-17T17:07:43.719Z,17.52
2023-04-17T17:10:13.168Z,17.00
2023-04-17T17:12:41.849Z,17.27
2023-04-17T17:15:11.565Z,17.58
2023-04-17T17:17:41.660Z,19.13
2023-04-17T17:20:11.936Z,18.48
2023-04-17T17:22:41.897Z,19.00
2023-04-17T17:25:12.689Z,18.67
2023-04-17T17:27:41.352Z,19.90
2023-04-17T17:30:11.602Z,19.70
2023-04-17T17:32:44.457Z,19.48
2023-04-17T17:35:13.415Z,19.63
2023-04-17T17:37:44.549Z,25.08
2023-04-17T17:40:31.779Z,24.38
2023-04-17T17:43:00.689Z,22.48
2023-04-17T17:45:32.745Z,22.83
2023-04-17T17:48:02.903Z,21.65
2023-04-17T17:50:33.844Z,23.02
2023-04-17T17:53:02.552Z,22.52
2023-04-17T17:55:33.500Z,21.92
2023-04-17T17:58:03.017Z,23.60
2023-04-17T18:00:34.735Z,22.67
2023-04-17T18:03:04.877Z,22.58
2023-04-17T18:05:33.846Z,21.60
2023-04-17T18:08:03.196Z,22.25
2023-04-17T18:10:34.787Z,21.27
2023-04-17T18:13:23.849Z,21.20
2023-04-17T18:15:52.486Z,21.90
2023-04-17T18:18:22.850Z,21.85
2023-04-17T18:20:51.949Z,21.90
2023-04-17T18:23:24.109Z,21.45
2023-04-17T18:26:06.894Z,20.42
2023-04-17T18:28:36.832Z,20.10
2023-04-17T18:31:06.750Z,20.20
2023-04-17T18:33:36.907Z,20.95
2023-04-17T18:36:06.285Z,21.15
2023-04-17T18:38:36.310Z,23.02
2023-04-17T18:41:05.428Z,22.55
2023-04-17T18:43:34.203Z,23.60
2023-04-17T18:46:11.973Z,24.30
2023-04-17T18:48:44.691Z,24.75
2023-04-17T18:51:40.299Z,25.58
2023-04-17T18:54:09.927Z,25.35
2023-04-17T18:56:38.659Z,25.88
2023-04-17T18:59:19.016Z,25.88
2023-04-17T19:01:47.784Z,26.33
2023-04-17T19:04:17.750Z,25.65
2023-04-17T19:06:46.398Z,25.98
2023-04-17T19:09:14.976Z,25.38
2023-04-17T19:11:43.902Z,26.23
2023-04-17T19:14:12.743Z,26.42
2023-04-17T19:16:41.280Z,26.88
2023-04-17T19:19:11.375Z,26.75
2023-04-17T19:21:41.909Z,26.80
2023-04-17T19:24:11.150Z,26.50
2023-04-17T19:26:39.915Z,26.45
2023-04-17T19:29:08.860Z,26.60
2023-04-17T19:31:38.123Z,26.20
2023-04-17T19:34:07.134Z,27.05
2023-04-17T19:36:36.660Z,26.17
2023-04-17T19:39:06.823Z,26.73
2023-04-17T19:41:35.348Z,24.27
2023-04-17T19:44:03.968Z,23.20
2023-04-17T19:46:33.017Z,24.08
2023-04-17T19:49:01.478Z,22.85
2023-04-17T19:51:30.141Z,22.13
2023-04-17T19:53:59.173Z,21.95
2023-04-17T19:56:29.797Z,22.08
2023-04-17T19:59:02.565Z,21.50
2023-04-17T20:01:32.528Z,20.63
2023-04-17T20:04:01.252Z,21.73
2023-04-17T20:06:29.758Z,21.08
2023-04-17T20:08:59.484Z,20.27
2023-04-17T20:11:30.126Z,20.73
2023-04-17T20:13:58.870Z,20.55
2023-04-17T20:16:27.448Z,20.52
2023-04-17T20:18:56.896Z,19.88
2023-04-17T20:21:25.496Z,20.40
2023-04-17T20:24:04.193Z,18.63
2023-04-17T20:26:40.349Z,20.05
2023-04-17T20:29:08.963Z,20.55
2023-04-17T20:31:37.855Z,18.92
2023-04-17T20:34:06.909Z,19.33
2023-04-17T20:36:35.658Z,18.73
2023-04-17T20:39:04.303Z,17.73
2023-04-17T20:41:32.861Z,18.48
2023-04-17T20:44:06.268Z,18.40
2023-04-17T20:46:34.931Z,19.88
2023-04-17T20:49:03.759Z,20.17
2023-04-17T20:51:32.515Z,19.95
2023-04-17T20:54:00.946Z,20.38
2023-04-17T20:56:29.529Z,20.00
2023-04-17T20:58:58.299Z,22.20
2023-04-17T21:01:28.580Z,20.75
2023-04-17T21:03:57.505Z,21.13
2023-04-17T21:06:26.909Z,21.05
2023-04-17T21:08:55.661Z,21.27
2023-04-17T21:11:24.308Z,21.48
2023-04-17T21:13:52.774Z,22.48
2023-04-17T21:16:21.515Z,22.40
2023-04-17T21:18:51.999Z,22.23
2023-04-17T21:21:20.566Z,23.10
2023-04-17T21:23:49.300Z,23.08
2023-04-17T21:26:18.767Z,23.27
2023-04-17T21:28:47.281Z,24.50
2023-04-17T21:31:16.473Z,24.83
2023-04-17T21:33:45.163Z,23.88
2023-04-17T21:36:15.374Z,24.42
2023-04-17T21:38:44.050Z,24.75
2023-04-17T21:41:12.803Z,25.00
2023-04-17T21:43:41.523Z,24.17
2023-04-17T21:46:11.500Z,25.35
2023-04-17T21:48:40.941Z,25.48
2023-04-17T21:51:09.592Z,26.15
2023-04-17T21:53:39.407Z,26.65
2023-04-17T21:56:09.739Z,25.27
2023-04-17T21:58:38.436Z,26.88
2023-04-17T22:01:08.306Z,25.33
2023-04-17T22:03:36.818Z,25.38
2023-04-17T22:06:06.329Z,25.90
2023-04-17T22:08:35.022Z,24.92
2023-04-17T22:11:05.575Z,24.40
2023-04-17T22:13:33.953Z,24.58
2023-04-17T22:16:02.519Z,24.15
2023-04-17T22:18:31.178Z,23.02
2023-04-17T22:20:59.688Z,24.02
2023-04-17T22:23:28.358Z,22.27
2023-04-17T22:25:57.076Z,22.98
2023-04-17T22:28:31.028Z,23.58
2023-04-17T22:31:00.324Z,22.65
2023-04-17T22:33:29.041Z,22.70
2023-04-17T22:35:57.613Z,22.90
2023-04-17T22:38:26.357Z,21.85
2023-04-17T22:40:55.804Z,22.23
2023-04-17T22:43:24.318Z,20.75
2023-04-17T22:45:54.425Z,21.23
2023-04-17T22:48:24.524Z,21.25
2023-04-17T22:50:53.782Z,19.42
2023-04-17T22:53:22.671Z,17.92
2023-04-17T22:56:02.196Z,19.75
2023-04-17T22:58:34.037Z,18.42
2023-04-17T23:01:04.399Z,17.70
2023-04-17T23:03:32.912Z,18.42
2023-04-17T23:06:01.602Z,18.30
2023-04-17T23:08:31.693Z,18.58
2023-04-17T23:11:01.346Z,18.20
2023-04-17T23:13:31.728Z,16.80
2023-04-17T23:16:00.424Z,17.02
2023-04-17T23:18:32.109Z,15.82
2023-04-17T23:21:00.714Z,16.50
2023-04-17T23:23:29.307Z,16.35
2023-04-17T23:25:58.006Z,16.10
2023-04-17T23:28:30.650Z,16.02
2023-04-17T23:30:59.378Z,15.55
2023-04-17T23:33:29.804Z,16.10
2023-04-17T23:35:58.362Z,15.30
2023-04-17T23:38:26.737Z,14.38
2023-04-17T23:40:55.619Z,14.75
2023-04-17T23:43:24.013Z,14.15
2023-04-17T23:45:54.132Z,14.45
2023-04-17T23:48:23.229Z,13.45
2023-04-17T23:50:53.361Z,13.73
2023-04-17T23:53:21.801Z,13.60
2023-04-17T23:55:50.248Z,13.55
2023-04-17T23:58:18.863Z,12.35
